Time;durP1;ratioP1;P1;durP2;ratioP2;P2;SDS_P1;SDS_P2;PMS_P1;PMS_P2;Temp;Humidity;BMP_temperature;BMP_pressure;BME280_temperature;BME280_humidity;BME280_pressure;Samples;Min_cycle;Max_cycle;Signal;HPM_P1;HPM_P2
2023/10/24 00:02:11;;;;;;;4.85;2.97;;;15.70;72.50;;;;;;2514025;55;21021;-67
2023/10/24 00:04:37;;;;;;;5.12;2.90;;;15.70;72.40;;;;;;2513483;55;21502;-67
2023/10/24 00:07:03;;;;;;;5.90;2.45;;;15.70;72.40;;;;;;2281487;56;21628;-67
2023/10/24 00:09:30;;;;;;;5.12;2.62;;;15.70;72.40;;;;;;2280524;56;21025;-67
2023/10/24 00:11:56;;;;;;;4.00;2.58;;;15.80;72.60;;;;;;2281533;55;20981;-70
2023/10/24 00:14:24;;;;;;;4.35;3.00;;;15.70;72.40;;;;;;2280439;55;20974;-66
2023/10/24 00:16:50;;;;;;;5.78;3.47;;;15.80;72.60;;;;;;2281092;56;21427;-68
2023/10/24 00:19:16;;;;;;;5.10;3.30;;;15.70;72.50;;;;;;2256509;56;21021;-67
2023/10/24 00:21:43;;;;;;;5.25;3.67;;;15.70;72.40;;;;;;2514007;55;21014;-66
2023/10/24 00:24:11;;;;;;;4.57;3.00;;;15.70;72.40;;;;;;2281540;55;20954;-68
2023/10/24 00:26:37;;;;;;;4.03;2.75;;;15.70;72.40;;;;;;2280491;55;21097;-68
2023/10/24 00:29:03;;;;;;;4.53;2.85;;;15.70;72.40;;;;;;2281887;56;21071;-67
2023/10/24 00:31:30;;;;;;;4.50;2.83;;;15.70;72.40;;;;;;2513645;55;20950;-68
2023/10/24 00:33:59;;;;;;;4.80;2.87;;;15.70;72.40;;;;;;2281745;56;20950;-68
2023/10/24 00:36:25;;;;;;;4.90;3.03;;;15.70;72.40;;;;;;2513539;55;20963;-67
2023/10/24 00:38:52;;;;;;;4.55;2.90;;;15.70;72.40;;;;;;2514180;55;21665;-66
2023/10/24 00:41:19;;;;;;;4.40;2.80;;;15.70;72.40;;;;;;2281268;55;20950;-70
2023/10/24 00:43:46;;;;;;;6.40;3.28;;;15.70;72.40;;;;;;2278476;55;21038;-69
2023/10/24 00:46:12;;;;;;;4.90;3.20;;;15.70;72.40;;;;;;2281262;55;20995;-66
2023/10/24 00:48:40;;;;;;;6.40;2.72;;;15.70;72.40;;;;;;2280344;56;20942;-68
2023/10/24 00:51:06;;;;;;;5.43;3.03;;;15.70;72.50;;;;;;2280759;55;20966;-68
2023/10/24 00:53:32;;;;;;;5.93;3.30;;;15.70;72.50;;;;;;2279477;55;20949;-69
2023/10/24 00:55:59;;;;;;;4.25;2.90;;;15.70;72.60;;;;;;2280697;55;20954;-68
2023/10/24 00:58:25;;;;;;;4.25;2.92;;;15.70;72.60;;;;;;2279730;55;21034;-68
2023/10/24 01:00:51;;;;;;;3.92;2.47;;;15.70;72.60;;;;;;2512506;55;20958;-65
2023/10/24 01:03:20;;;;;;;4.97;2.78;;;15.70;72.60;;;;;;2280656;55;20937;-68
2023/10/24 01:05:48;;;;;;;4.97;3.33;;;15.70;72.60;;;;;;2513105;55;21449;-69
2023/10/24 01:08:16;;;;;;;5.95;2.90;;;15.70;73.20;;;;;;2513416;55;20974;-69
2023/10/24 01:10:45;;;;;;;4.40;2.70;;;15.70;72.60;;;;;;2280421;55;21384;-67
2023/10/24 01:13:11;;;;;;;4.30;2.90;;;15.70;72.50;;;;;;2514109;55;21455;-67
2023/10/24 01:15:37;;;;;;;5.12;3.28;;;15.70;72.50;;;;;;2512839;55;20955;-64
2023/10/24 01:18:04;;;;;;;5.28;3.45;;;15.70;72.60;;;;;;2514200;55;21017;-66
2023/10/24 01:20:30;;;;;;;5.75;3.67;;;15.60;72.50;;;;;;2279990;56;21533;-66
2023/10/24 01:22:57;;;;;;;4.07;2.85;;;15.70;72.60;;;;;;2280264;56;21006;-65
2023/10/24 01:25:23;;;;;;;5.32;3.20;;;15.60;72.60;;;;;;2513414;55;22126;-66
2023/10/24 01:27:53;;;;;;;4.28;2.87;;;15.70;72.70;;;;;;2510212;55;20980;-65
2023/10/24 01:30:20;;;;;;;4.60;3.05;;;15.70;72.80;;;;;;2266029;54;21062;-67
2023/10/24 01:32:46;;;;;;;4.55;3.05;;;15.70;72.70;;;;;;2278893;55;21452;-69
2023/10/24 01:35:12;;;;;;;4.95;3.30;;;15.60;72.50;;;;;;2512260;55;21049;-68
2023/10/24 01:37:39;;;;;;;5.78;3.12;;;15.70;72.60;;;;;;2503618;55;20997;-68
2023/10/24 01:40:06;;;;;;;5.97;3.33;;;15.70;72.70;;;;;;2280679;56;21089;-66
2023/10/24 01:42:33;;;;;;;4.55;3.28;;;15.70;72.70;;;;;;2279817;55;21014;-67
2023/10/24 01:44:59;;;;;;;3.97;3.15;;;15.70;72.80;;;;;;2511930;55;20976;-68
2023/10/24 01:47:25;;;;;;;5.10;3.33;;;15.70;72.80;;;;;;2275615;54;20946;-65
2023/10/24 01:49:52;;;;;;;4.25;2.65;;;15.70;72.80;;;;;;2513029;55;20970;-66
2023/10/24 01:52:18;;;;;;;5.20;2.62;;;15.60;72.80;;;;;;2280712;56;20974;-68
2023/10/24 01:54:45;;;;;;;4.32;2.53;;;15.60;72.80;;;;;;2513181;55;21006;-66
2023/10/24 01:57:12;;;;;;;4.53;2.45;;;15.70;72.90;;;;;;2280782;55;20950;-68
2023/10/24 01:59:38;;;;;;;4.93;2.53;;;15.60;72.90;;;;;;2279663;55;20954;-69
2023/10/24 02:02:04;;;;;;;4.07;2.65;;;15.70;73.10;;;;;;2280752;56;21818;-69
2023/10/24 02:04:30;;;;;;;4.47;2.67;;;15.70;73.10;;;;;;2513800;55;21031;-67
2023/10/24 02:06:57;;;;;;;4.00;2.62;;;15.60;73.00;;;;;;2513088;55;20979;-65
2023/10/24 02:09:23;;;;;;;5.55;3.03;;;15.70;73.20;;;;;;2514116;55;20922;-68
2023/10/24 02:11:52;;;;;;;5.72;2.72;;;15.70;73.30;;;;;;2513213;55;21045;-66
2023/10/24 02:14:18;;;;;;;5.80;3.33;;;15.70;73.30;;;;;;2513708;55;20989;-66
2023/10/24 02:16:45;;;;;;;6.12;3.62;;;15.70;73.40;;;;;;2513213;55;21049;-67
2023/10/24 02:19:11;;;;;;;6.82;4.47;;;15.70;73.40;;;;;;2281105;56;20957;-65
2023/10/24 02:21:38;;;;;;;6.43;4.47;;;15.70;73.50;;;;;;2282878;56;20958;-68
2023/10/24 02:24:07;;;;;;;4.95;3.72;;;15.80;73.40;;;;;;2273657;55;20954;-67
2023/10/24 02:26:35;;;;;;;6.07;3.50;;;15.80;73.40;;;;;;2280113;55;21034;-64
2023/10/24 02:29:02;;;;;;;5.72;3.95;;;15.80;73.40;;;;;;2280167;56;20957;-65
2023/10/24 02:31:31;;;;;;;6.03;3.95;;;15.80;73.40;;;;;;2280776;55;20982;-66
2023/10/24 02:33:57;;;;;;;6.28;3.75;;;15.80;73.30;;;;;;2280404;55;21799;-66
2023/10/24 02:36:24;;;;;;;4.97;3.67;;;15.80;73.30;;;;;;2514386;55;20969;-68
2023/10/24 02:38:51;;;;;;;5.32;3.28;;;15.90;73.40;;;;;;2511860;55;20954;-67
2023/10/24 02:41:17;;;;;;;5.40;3.33;;;15.80;73.30;;;;;;2280623;56;21001;-66
2023/10/24 02:43:44;;;;;;;5.90;3.00;;;15.80;73.30;;;;;;2280073;55;22101;-68
2023/10/24 02:46:10;;;;;;;5.68;3.17;;;15.90;73.40;;;;;;2281526;56;20966;-66
2023/10/24 02:48:36;;;;;;;5.62;3.12;;;15.80;73.30;;;;;;2283846;55;21789;-65
2023/10/24 02:51:03;;;;;;;5.15;3.42;;;15.90;73.40;;;;;;2273471;55;21309;-68
2023/10/24 02:53:29;;;;;;;4.75;2.95;;;15.90;73.30;;;;;;2281200;55;21021;-66
2023/10/24 02:56:00;;;;;;;6.30;3.12;;;15.80;73.30;;;;;;2513773;55;21438;-69
2023/10/24 02:58:26;;;;;;;8.18;3.80;;;15.90;73.20;;;;;;2284516;55;21773;-67
2023/10/24 03:00:53;;;;;;;5.25;2.95;;;15.90;73.30;;;;;;2280479;55;21046;-69
2023/10/24 03:03:19;;;;;;;5.07;3.17;;;15.90;73.30;;;;;;2281213;55;21035;-66
2023/10/24 03:05:45;;;;;;;4.82;2.75;;;15.90;73.30;;;;;;2280938;55;20954;-68
2023/10/24 03:08:12;;;;;;;6.50;3.55;;;15.90;73.30;;;;;;2513900;55;21010;-67
2023/10/24 03:10:39;;;;;;;6.60;3.35;;;15.90;73.20;;;;;;2281058;56;20938;-66
2023/10/24 03:13:06;;;;;;;4.68;3.28;;;15.90;73.20;;;;;;2514090;55;20978;-67
2023/10/24 03:15:35;;;;;;;5.30;3.40;;;15.90;73.20;;;;;;2280697;55;21483;-67
2023/10/24 03:18:01;;;;;;;3.78;2.60;;;15.90;73.20;;;;;;2281129;56;21054;-66
2023/10/24 03:20:28;;;;;;;5.15;2.87;;;15.90;73.20;;;;;;2255949;56;21852;-69
2023/10/24 03:22:54;;;;;;;6.43;2.60;;;15.90;73.20;;;;;;2280034;55;21031;-69
2023/10/24 03:25:22;;;;;;;5.85;2.87;;;15.90;73.10;;;;;;2262858;54;21090;-70
2023/10/24 03:27:51;;;;;;;5.78;2.65;;;15.90;73.10;;;;;;2278221;55;21032;-68
2023/10/24 03:30:18;;;;;;;3.85;2.47;;;15.90;73.00;;;;;;2280930;55;21553;-66
2023/10/24 03:32:44;;;;;;;4.35;2.92;;;15.90;73.10;;;;;;2276781;55;20943;-66
2023/10/24 03:35:11;;;;;;;4.57;3.12;;;15.90;73.00;;;;;;2281378;56;20958;-66
2023/10/24 03:37:37;;;;;;;4.72;3.00;;;15.90;72.90;;;;;;2514463;55;21049;-68
2023/10/24 03:40:05;;;;;;;4.80;3.17;;;15.80;72.70;;;;;;2280824;55;20998;-65
2023/10/24 03:42:31;;;;;;;5.47;3.03;;;15.80;72.60;;;;;;2281294;55;20977;-66
2023/10/24 03:44:58;;;;;;;4.65;2.87;;;15.80;72.60;;;;;;2281301;55;20971;-69
2023/10/24 03:47:28;;;;;;;5.53;3.35;;;15.80;72.60;;;;;;2276976;54;21743;-65
2023/10/24 03:49:54;;;;;;;5.80;3.50;;;15.80;72.70;;;;;;2504694;54;20962;-68
2023/10/24 03:52:20;;;;;;;5.90;4.07;;;15.70;72.70;;;;;;2281042;56;20974;-68
2023/10/24 03:54:46;;;;;;;4.93;3.25;;;15.80;72.90;;;;;;2280991;56;21686;-66
2023/10/24 03:57:13;;;;;;;5.75;3.45;;;15.80;73.00;;;;;;2514282;54;21101;-66
2023/10/24 03:59:40;;;;;;;6.35;3.37;;;15.80;73.00;;;;;;2281730;56;21446;-67
2023/10/24 04:02:06;;;;;;;5.28;3.10;;;15.70;73.00;;;;;;2513575;55;21027;-66
2023/10/24 04:04:33;;;;;;;5.32;3.40;;;15.70;73.10;;;;;;2514095;55;21835;-65
2023/10/24 04:07:02;;;;;;;4.75;3.10;;;15.70;73.10;;;;;;2281035;56;21030;-66
2023/10/24 04:09:28;;;;;;;4.40;2.80;;;15.80;73.30;;;;;;2256897;55;21494;-66
2023/10/24 04:12:04;;;;;;;5.18;2.83;;;15.80;73.30;;;;;;2281020;55;21460;-65
2023/10/24 04:14:30;;;;;;;6.00;2.95;;;15.80;73.30;;;;;;2281441;56;21097;-67
2023/10/24 04:16:59;;;;;;;4.10;3.05;;;15.80;73.30;;;;;;2514547;55;21026;-67
2023/10/24 04:19:25;;;;;;;4.70;3.40;;;15.80;73.30;;;;;;2514301;55;20942;-67
2023/10/24 04:21:52;;;;;;;5.25;3.15;;;15.80;73.30;;;;;;2513932;55;21483;-66
2023/10/24 04:24:18;;;;;;;4.22;2.83;;;15.80;73.30;;;;;;2281133;56;20989;-66
2023/10/24 04:26:45;;;;;;;4.70;2.92;;;15.80;73.30;;;;;;2281575;55;21538;-64
2023/10/24 04:29:12;;;;;;;4.30;2.85;;;15.80;73.30;;;;;;2277634;54;20986;-66
2023/10/24 04:31:39;;;;;;;4.87;3.08;;;15.80;73.30;;;;;;2280151;55;20974;-66
2023/10/24 04:34:05;;;;;;;6.00;2.90;;;15.80;73.20;;;;;;2280818;56;20945;-65
2023/10/24 04:36:33;;;;;;;4.70;3.12;;;15.80;73.20;;;;;;2281329;55;20989;-67
2023/10/24 04:39:00;;;;;;;4.82;2.95;;;15.80;73.20;;;;;;2513686;55;20962;-66
2023/10/24 04:41:26;;;;;;;4.15;2.83;;;15.80;73.10;;;;;;2281251;55;21175;-66
2023/10/24 04:43:53;;;;;;;4.53;2.85;;;15.70;73.00;;;;;;2280733;56;21026;-65
2023/10/24 04:46:19;;;;;;;4.10;2.22;;;15.70;73.10;;;;;;2281372;55;20974;-67
2023/10/24 04:48:47;;;;;;;3.85;1.80;;;15.70;73.10;;;;;;2514557;55;21013;-70
2023/10/24 04:51:15;;;;;;;3.22;1.87;;;15.70;73.40;;;;;;2514142;55;21022;-66
2023/10/24 04:53:42;;;;;;;2.75;1.12;;;15.70;73.60;;;;;;2514951;55;20950;-68
2023/10/24 04:56:10;;;;;;;2.28;0.82;;;15.70;73.90;;;;;;2281228;56;20982;-69
2023/10/24 04:58:37;;;;;;;1.55;0.60;;;15.80;74.30;;;;;;2513763;54;21006;-68
2023/10/24 05:01:08;;;;;;;1.52;0.60;;;15.80;74.60;;;;;;2281528;56;21015;-66
2023/10/24 05:03:35;;;;;;;2.62;0.88;;;15.80;74.90;;;;;;2514751;55;21279;-65
2023/10/24 05:06:02;;;;;;;4.35;1.17;;;15.90;75.40;;;;;;2297121;55;20977;-67
2023/10/24 05:08:29;;;;;;;6.20;1.70;;;15.90;75.70;;;;;;2278432;55;21042;-67
2023/10/24 05:10:55;;;;;;;3.83;1.45;;;15.90;75.90;;;;;;2279944;55;21006;-65
2023/10/24 05:13:21;;;;;;;3.30;1.50;;;16.00;75.90;;;;;;2514583;55;21509;-68
2023/10/24 05:15:47;;;;;;;2.60;1.20;;;16.10;75.90;;;;;;2509029;55;20959;-68
2023/10/24 05:18:14;;;;;;;3.20;1.50;;;16.10;75.80;;;;;;2276991;55;21546;-66
2023/10/24 05:20:43;;;;;;;4.37;1.92;;;16.20;75.70;;;;;;2514772;55;20966;-66
2023/10/24 05:23:12;;;;;;;3.87;2.07;;;16.20;76.10;;;;;;2280876;55;21367;-65
2023/10/24 05:25:40;;;;;;;4.15;2.67;;;16.20;75.20;;;;;;2280623;56;20990;-65
2023/10/24 05:28:08;;;;;;;5.40;2.40;;;16.30;75.20;;;;;;2280936;56;21091;-65
2023/10/24 05:30:38;;;;;;;8.10;2.95;;;16.30;74.90;;;;;;2507088;55;20957;-67
2023/10/24 05:33:05;;;;;;;4.37;2.83;;;16.30;74.80;;;;;;2513728;55;20938;-67
2023/10/24 05:35:32;;;;;;;7.47;2.80;;;16.40;74.90;;;;;;2514667;54;21001;-67
2023/10/24 05:37:58;;;;;;;6.50;3.17;;;16.40;74.80;;;;;;2513121;55;21016;-66
2023/10/24 05:40:25;;;;;;;4.40;2.65;;;16.40;74.80;;;;;;2281099;56;21037;-67
2023/10/24 05:42:51;;;;;;;4.03;2.28;;;16.40;74.70;;;;;;2281838;56;20937;-68
2023/10/24 05:45:18;;;;;;;4.45;3.08;;;16.40;74.60;;;;;;2513492;55;21030;-65
2023/10/24 05:47:44;;;;;;;6.07;2.75;;;16.50;74.70;;;;;;2281533;56;20958;-67
2023/10/24 05:50:11;;;;;;;4.87;2.80;;;16.50;74.50;;;;;;2513283;55;21262;-66
2023/10/24 05:52:37;;;;;;;5.18;2.92;;;16.50;74.40;;;;;;2281548;56;20935;-65
2023/10/24 05:55:04;;;;;;;6.05;3.37;;;16.60;74.40;;;;;;2280617;56;21001;-65
2023/10/24 05:57:33;;;;;;;5.22;2.80;;;16.50;74.20;;;;;;2281408;55;20962;-67
2023/10/24 06:00:01;;;;;;;4.35;2.70;;;16.50;74.10;;;;;;2280410;56;20998;-68
2023/10/24 06:02:27;;;;;;;5.62;3.15;;;16.50;74.20;;;;;;2281222;55;20973;-66
2023/10/24 06:04:53;;;;;;;4.50;2.30;;;16.50;74.10;;;;;;2281012;56;20954;-64
2023/10/24 06:07:19;;;;;;;4.62;2.58;;;16.50;74.10;;;;;;2519633;54;21088;-65
2023/10/24 06:09:46;;;;;;;5.70;2.80;;;16.50;74.10;;;;;;2290915;55;20946;-66
2023/10/24 06:12:14;;;;;;;4.68;2.60;;;16.50;74.10;;;;;;2280538;55;21718;-66
2023/10/24 06:14:40;;;;;;;4.30;2.60;;;16.50;74.10;;;;;;2514846;55;20949;-65
2023/10/24 06:17:08;;;;;;;4.93;2.60;;;16.50;74.00;;;;;;2281220;55;21006;-66
2023/10/24 06:19:40;;;;;;;5.12;2.72;;;16.50;74.00;;;;;;2281180;56;20962;-67
2023/10/24 06:22:06;;;;;;;5.53;2.97;;;16.50;74.00;;;;;;2514510;55;21045;-67
2023/10/24 06:24:33;;;;;;;3.92;2.30;;;16.50;74.00;;;;;;2281294;56;21466;-65
2023/10/24 06:26:59;;;;;;;3.67;2.08;;;16.50;74.00;;;;;;2281378;56;20968;-67
2023/10/24 06:29:25;;;;;;;4.35;2.37;;;16.50;74.00;;;;;;2514245;55;21014;-66
2023/10/24 06:31:52;;;;;;;3.28;1.85;;;16.50;74.00;;;;;;2515196;55;20935;-69
2023/10/24 06:34:18;;;;;;;4.18;2.12;;;16.50;74.00;;;;;;2280824;55;20990;-65
2023/10/24 06:36:45;;;;;;;3.95;2.00;;;16.60;74.10;;;;;;2281644;56;21018;-65
2023/10/24 06:39:12;;;;;;;3.35;2.12;;;16.50;74.10;;;;;;2280917;55;21281;-68
2023/10/24 06:41:38;;;;;;;3.70;2.22;;;16.50;74.10;;;;;;2254921;56;20970;-65
2023/10/24 06:44:05;;;;;;;3.35;2.00;;;16.50;74.20;;;;;;2505473;54;20950;-66
2023/10/24 06:46:32;;;;;;;3.35;2.05;;;16.50;74.20;;;;;;2282696;55;20966;-67
2023/10/24 06:48:58;;;;;;;3.70;2.05;;;16.50;74.20;;;;;;2277221;54;21111;-65
2023/10/24 06:51:25;;;;;;;3.35;1.83;;;16.60;74.30;;;;;;2280422;55;21042;-65
2023/10/24 06:53:51;;;;;;;3.35;1.73;;;16.50;74.20;;;;;;2281682;55;21724;-65
2023/10/24 06:56:17;;;;;;;2.70;1.52;;;16.60;74.30;;;;;;2280816;56;21014;-65
2023/10/24 06:58:45;;;;;;;3.05;1.60;;;16.60;74.30;;;;;;2515063;55;21049;-66
2023/10/24 07:01:12;;;;;;;3.67;1.37;;;16.60;74.30;;;;;;2513115;55;20954;-64
2023/10/24 07:03:38;;;;;;;3.30;1.25;;;16.60;74.40;;;;;;2514699;55;21014;-65
2023/10/24 07:06:05;;;;;;;3.45;1.48;;;16.60;74.40;;;;;;2281068;56;22996;-65
2023/10/24 07:08:31;;;;;;;2.33;1.23;;;16.60;74.40;;;;;;2281121;56;20974;-68
2023/10/24 07:10:57;;;;;;;3.05;1.27;;;16.60;74.50;;;;;;2281262;55;20989;-66
2023/10/24 07:13:24;;;;;;;2.05;0.90;;;16.60;74.50;;;;;;2514062;55;22391;-65
2023/10/24 07:15:50;;;;;;;2.03;0.70;;;16.60;74.50;;;;;;2281683;56;20997;-66
2023/10/24 07:18:16;;;;;;;2.10;0.70;;;16.60;74.60;;;;;;2280191;55;20976;-66
2023/10/24 07:20:43;;;;;;;1.87;0.57;;;16.70;74.80;;;;;;2514926;55;21014;-66
2023/10/24 07:23:11;;;;;;;1.65;0.60;;;16.60;74.70;;;;;;2280818;55;21325;-66
2023/10/24 07:25:38;;;;;;;1.73;0.50;;;16.60;74.80;;;;;;2282679;55;21011;-66
2023/10/24 07:28:05;;;;;;;1.17;0.50;;;16.70;75.00;;;;;;2529852;54;21081;-65
2023/10/24 07:30:31;;;;;;;2.55;0.65;;;16.70;75.10;;;;;;2280095;55;21010;-65
2023/10/24 07:32:58;;;;;;;1.05;0.40;;;16.70;75.80;;;;;;2513956;55;21037;-64
2023/10/24 07:35:24;;;;;;;1.85;0.60;;;16.70;75.20;;;;;;2281005;56;21066;-65
2023/10/24 07:37:50;;;;;;;1.27;0.45;;;16.80;75.30;;;;;;2514436;55;20946;-64
2023/10/24 07:40:17;;;;;;;2.37;0.40;;;16.70;75.30;;;;;;2280082;55;20962;-67
2023/10/24 07:42:43;;;;;;;3.17;0.40;;;16.80;75.40;;;;;;2281459;55;20938;-65
2023/10/24 07:45:11;;;;;;;1.45;0.40;;;16.80;75.40;;;;;;2280599;55;21010;-65
2023/10/24 07:47:37;;;;;;;2.17;0.62;;;16.90;75.60;;;;;;2509372;55;21003;-67
2023/10/24 07:50:04;;;;;;;1.25;0.40;;;16.90;75.60;;;;;;2278499;55;20942;-67
2023/10/24 07:52:30;;;;;;;1.50;0.40;;;16.90;75.60;;;;;;2280727;56;21642;-66
2023/10/24 07:54:56;;;;;;;2.00;0.50;;;16.90;75.60;;;;;;2514659;55;20994;-65
2023/10/24 07:57:23;;;;;;;0.93;0.40;;;16.90;75.60;;;;;;2280395;56;20957;-66
2023/10/24 07:59:49;;;;;;;1.05;0.50;;;17.00;75.70;;;;;;2281720;56;21494;-67
2023/10/24 08:02:17;;;;;;;1.33;0.50;;;17.00;75.60;;;;;;2280521;55;21041;-67
2023/10/24 08:04:46;;;;;;;0.80;0.30;;;17.00;75.70;;;;;;2282334;55;21392;-66
2023/10/24 08:07:12;;;;;;;0.80;0.40;;;17.10;75.80;;;;;;2280910;56;21042;-66
2023/10/24 08:09:39;;;;;;;1.33;0.30;;;17.00;75.60;;;;;;2281371;55;21407;-67
2023/10/24 08:12:06;;;;;;;2.67;0.50;;;17.10;75.60;;;;;;2280864;55;20966;-66
2023/10/24 08:14:34;;;;;;;0.43;0.20;;;17.10;75.60;;;;;;2280680;55;21051;-65
2023/10/24 08:17:00;;;;;;;0.50;0.30;;;17.10;75.60;;;;;;2509343;55;20957;-66
2023/10/24 08:19:26;;;;;;;3.20;0.50;;;17.10;75.60;;;;;;2280755;55;21836;-67
2023/10/24 08:21:53;;;;;;;1.40;0.43;;;17.20;75.70;;;;;;2281618;55;20958;-68
2023/10/24 08:24:21;;;;;;;1.00;0.40;;;17.20;75.70;;;;;;2512889;55;21368;-67
2023/10/24 08:26:50;;;;;;;1.98;0.50;;;17.20;75.60;;;;;;2513825;55;21713;-67
2023/10/24 08:29:25;;;;;;;0.80;0.35;;;17.20;75.60;;;;;;2291008;55;21037;-67
2023/10/24 08:31:52;;;;;;;1.50;0.30;;;17.30;75.70;;;;;;2521824;54;20958;-69
2023/10/24 08:34:25;;;;;;;1.95;0.52;;;17.30;75.70;;;;;;2280924;55;20943;-65
2023/10/24 08:36:52;;;;;;;0.47;0.30;;;17.40;75.80;;;;;;2281826;56;21017;-65
2023/10/24 08:39:18;;;;;;;0.75;0.25;;;17.40;75.70;;;;;;2280542;55;21496;-66
2023/10/24 08:41:51;;;;;;;0.93;0.40;;;17.40;75.80;;;;;;2281999;55;20988;-66
2023/10/24 08:44:17;;;;;;;0.45;0.20;;;17.40;75.80;;;;;;2502139;54;22256;-67
2023/10/24 08:46:43;;;;;;;0.57;0.30;;;17.40;75.70;;;;;;2285281;55;21800;-67
2023/10/24 08:49:10;;;;;;;2.70;0.30;;;17.40;75.70;;;;;;2281136;55;20958;-69
2023/10/24 08:51:37;;;;;;;0.50;0.30;;;17.50;75.70;;;;;;2280295;55;21630;-66
2023/10/24 08:54:03;;;;;;;0.93;0.30;;;17.50;75.70;;;;;;2514630;55;20957;-68
2023/10/24 08:56:30;;;;;;;1.70;0.20;;;17.50;75.70;;;;;;2281058;56;21050;-66
2023/10/24 08:58:56;;;;;;;0.50;0.25;;;17.50;75.70;;;;;;2514642;55;20942;-68
2023/10/24 09:01:23;;;;;;;1.00;0.40;;;17.50;75.70;;;;;;2513431;55;20990;-68
2023/10/24 09:03:50;;;;;;;2.70;0.35;;;17.60;75.70;;;;;;2508605;54;20987;-66
2023/10/24 09:06:17;;;;;;;0.70;0.30;;;17.60;75.60;;;;;;2278305;55;20938;-67
2023/10/24 09:08:43;;;;;;;0.90;0.40;;;17.60;75.60;;;;;;2514736;55;20937;-68
2023/10/24 09:11:09;;;;;;;1.25;0.60;;;17.60;75.60;;;;;;2296079;55;21114;-66
2023/10/24 09:13:39;;;;;;;1.67;0.50;;;17.60;75.60;;;;;;2267160;54;20973;-66
2023/10/24 09:16:09;;;;;;;2.00;0.70;;;17.60;75.60;;;;;;2523560;54;20946;-66
2023/10/24 09:18:39;;;;;;;1.65;0.70;;;17.60;75.60;;;;;;2280210;55;20966;-66
2023/10/24 09:21:07;;;;;;;1.15;0.52;;;17.70;75.60;;;;;;2280828;56;20962;-66
2023/10/24 09:23:36;;;;;;;3.08;1.00;;;17.70;75.60;;;;;;2513535;55;21065;-66
2023/10/24 09:26:03;;;;;;;5.43;1.20;;;17.70;75.50;;;;;;2510559;55;21035;-65
2023/10/24 09:28:30;;;;;;;2.20;0.90;;;17.70;75.60;;;;;;2267846;54;21659;-66
2023/10/24 09:30:58;;;;;;;2.40;0.93;;;17.70;75.60;;;;;;2281335;56;20934;-68
2023/10/24 09:33:28;;;;;;;1.60;0.68;;;17.80;75.60;;;;;;2513254;55;21088;-68
2023/10/24 09:35:55;;;;;;;1.40;0.60;;;17.80;75.50;;;;;;2514920;55;21470;-66
2023/10/24 09:38:42;;;;;;;2.28;1.17;;;17.80;75.50;;;;;;2514122;55;21038;-67
2023/10/24 09:41:10;;;;;;;2.62;1.00;;;17.80;75.30;;;;;;2514361;55;21381;-67
2023/10/24 09:43:36;;;;;;;2.53;1.00;;;17.80;75.30;;;;;;2513579;55;21059;-66
2023/10/24 09:46:03;;;;;;;1.65;0.73;;;17.80;75.30;;;;;;2281588;55;21962;-66
2023/10/24 09:48:30;;;;;;;3.28;0.77;;;17.80;75.30;;;;;;2279995;55;21077;-66
2023/10/24 09:50:56;;;;;;;2.08;0.95;;;17.80;75.30;;;;;;2281093;56;21752;-67
2023/10/24 09:53:24;;;;;;;1.83;0.80;;;17.80;75.30;;;;;;2281043;56;21018;-66
2023/10/24 09:55:50;;;;;;;1.20;0.60;;;17.80;75.30;;;;;;2514499;55;20961;-67
2023/10/24 09:58:18;;;;;;;1.33;0.50;;;17.90;75.30;;;;;;2279597;55;21415;-67
2023/10/24 10:00:45;;;;;;;1.85;0.60;;;17.90;75.20;;;;;;2281257;55;21099;-66
2023/10/24 10:03:11;;;;;;;1.37;0.60;;;17.90;75.20;;;;;;2280962;55;20978;-66
2023/10/24 10:05:38;;;;;;;1.55;0.50;;;17.90;75.20;;;;;;2279571;55;21033;-68
2023/10/24 10:08:05;;;;;;;0.75;0.40;;;17.90;75.20;;;;;;2280513;55;21014;-69
2023/10/24 10:10:31;;;;;;;1.58;0.50;;;17.90;75.10;;;;;;2279850;55;20958;-67
2023/10/24 10:13:00;;;;;;;0.60;0.30;;;17.90;75.10;;;;;;2513550;55;20970;-68
2023/10/24 10:16:39;;;;;;;0.77;0.40;;;17.90;75.00;;;;;;2279932;56;21397;-67
2023/10/24 10:19:43;;;;;;;1.33;0.30;;;18.00;74.40;;;;;;2281651;55;20962;-66
2023/10/24 10:26:07;;;;;;;1.37;0.40;;;17.90;74.30;;;;;;2514070;55;20998;-66
2023/10/24 10:29:00;;;;;;;0.60;0.30;;;18.00;74.40;;;;;;2507452;55;20987;-66
2023/10/24 10:33:18;;;;;;;0.77;0.30;;;18.00;74.20;;;;;;2268016;55;20953;-70
2023/10/24 10:36:01;;;;;;;0.35;0.20;;;18.00;74.20;;;;;;2514480;55;21772;-67
2023/10/24 10:38:47;;;;;;;0.82;0.20;;;18.00;74.60;;;;;;2513194;54;21038;-66
2023/10/24 10:42:32;;;;;;;0.60;0.30;;;17.90;74.20;;;;;;2280956;56;21014;-66
2023/10/24 10:45:21;;;;;;;0.95;0.30;;;18.00;74.00;;;;;;2514324;55;20966;-69
2023/10/24 10:47:47;;;;;;;0.70;0.40;;;17.90;74.70;;;;;;2281404;56;21849;-67
2023/10/24 10:50:26;;;;;;;0.57;0.20;;;17.90;74.80;;;;;;2513527;54;20958;-66
2023/10/24 10:55:32;;;;;;;0.57;0.30;;;17.90;74.80;;;;;;2281311;55;20958;-68
2023/10/24 10:58:23;;;;;;;0.50;0.20;;;17.90;74.90;;;;;;2514069;55;20982;-68
2023/10/24 11:06:12;;;;;;;3.15;0.90;;;17.90;74.70;;;;;;2281426;56;20950;-69
2023/10/24 11:08:38;;;;;;;1.95;0.70;;;17.90;74.50;;;;;;2513363;55;21002;-70
2023/10/24 11:11:09;;;;;;;2.58;0.50;;;18.00;74.70;;;;;;2281838;56;20958;-69
2023/10/24 11:13:43;;;;;;;1.60;0.45;;;18.00;74.80;;;;;;2280214;55;20926;-68
2023/10/24 11:16:13;;;;;;;1.40;0.50;;;18.00;74.80;;;;;;2280940;56;21443;-67
2023/10/24 11:18:43;;;;;;;1.08;0.40;;;18.00;74.90;;;;;;2280875;56;21009;-67
2023/10/24 11:21:12;;;;;;;1.42;0.40;;;18.00;75.00;;;;;;2281122;56;20989;-68
2023/10/24 11:23:41;;;;;;;0.90;0.40;;;18.00;75.00;;;;;;2280800;56;20970;-69
2023/10/24 11:26:08;;;;;;;1.02;0.30;;;18.00;75.00;;;;;;2281223;55;20990;-67
2023/10/24 11:28:34;;;;;;;0.60;0.30;;;18.00;75.00;;;;;;2280096;56;21274;-68
2023/10/24 11:31:23;;;;;;;2.50;0.30;;;18.00;75.00;;;;;;2514491;55;20942;-67
2023/10/24 11:33:50;;;;;;;1.30;0.40;;;18.00;74.60;;;;;;2281500;56;21025;-69
2023/10/24 11:36:16;;;;;;;1.12;0.47;;;18.00;74.90;;;;;;2280061;55;21925;-68
2023/10/24 11:38:43;;;;;;;1.00;0.40;;;18.00;74.80;;;;;;2281614;56;21127;-66
2023/10/24 11:41:10;;;;;;;0.62;0.30;;;18.00;74.90;;;;;;2280711;55;21058;-66
2023/10/24 11:43:36;;;;;;;1.60;0.55;;;18.10;75.00;;;;;;2513039;55;21426;-67
2023/10/24 11:46:02;;;;;;;1.12;0.37;;;18.10;75.00;;;;;;2514401;55;21383;-67
2023/10/24 11:48:29;;;;;;;1.62;0.40;;;18.10;75.00;;;;;;2513772;55;21251;-68
2023/10/24 11:50:55;;;;;;;0.90;0.30;;;18.10;75.10;;;;;;2281361;55;21451;-69
2023/10/24 11:53:23;;;;;;;3.33;0.30;;;18.10;75.10;;;;;;2278035;55;20938;-66
2023/10/24 11:55:50;;;;;;;1.12;0.40;;;18.10;75.10;;;;;;2510663;54;21004;-67
2023/10/24 11:58:17;;;;;;;1.35;0.40;;;18.20;75.20;;;;;;2280599;56;21002;-67
2023/10/24 12:00:44;;;;;;;1.42;0.52;;;18.20;75.10;;;;;;2514293;55;20958;-65
2023/10/24 12:03:13;;;;;;;1.62;0.40;;;18.20;75.10;;;;;;2281330;55;21005;-67
2023/10/24 12:05:50;;;;;;;1.92;0.60;;;18.20;75.10;;;;;;2280954;55;20957;-67
2023/10/24 12:08:24;;;;;;;0.90;0.40;;;18.30;74.80;;;;;;2277750;55;21047;-69
2023/10/24 12:10:56;;;;;;;1.60;0.60;;;18.20;74.80;;;;;;2513520;54;20970;-68
2023/10/24 12:13:25;;;;;;;1.45;0.50;;;18.30;74.70;;;;;;2280619;55;21017;-69
2023/10/24 12:15:51;;;;;;;0.95;0.40;;;18.30;74.90;;;;;;2281382;56;20962;-68
2023/10/24 12:18:18;;;;;;;1.37;0.40;;;18.30;74.80;;;;;;2279869;55;20970;-67
2023/10/24 12:20:44;;;;;;;0.65;0.30;;;18.30;74.80;;;;;;2280698;55;20958;-66
2023/10/24 12:23:11;;;;;;;1.92;0.60;;;18.30;74.70;;;;;;2281673;56;20931;-67
2023/10/24 12:25:37;;;;;;;1.67;0.60;;;18.30;74.70;;;;;;2280612;56;21555;-69
2023/10/24 12:28:03;;;;;;;1.15;0.50;;;18.30;74.80;;;;;;2281103;55;21544;-66
2023/10/24 12:30:30;;;;;;;0.98;0.45;;;18.20;74.60;;;;;;2513479;55;21018;-67
2023/10/24 12:32:57;;;;;;;0.60;0.30;;;18.40;74.80;;;;;;2281011;55;20985;-68
2023/10/24 12:35:23;;;;;;;1.05;0.30;;;18.40;74.80;;;;;;2280783;55;21430;-67
2023/10/24 12:37:50;;;;;;;1.70;0.70;;;18.40;74.80;;;;;;2514221;55;21874;-66
2023/10/24 12:40:16;;;;;;;1.40;0.62;;;18.40;74.70;;;;;;2280950;55;20962;-66
2023/10/24 12:42:43;;;;;;;1.40;0.50;;;18.40;74.80;;;;;;2281372;55;20974;-69
2023/10/24 12:45:09;;;;;;;1.25;0.55;;;18.40;74.70;;;;;;2514627;55;20946;-67
2023/10/24 12:47:36;;;;;;;0.70;0.22;;;18.40;74.70;;;;;;2514180;55;20993;-67
2023/10/24 12:50:03;;;;;;;1.15;0.43;;;18.40;74.70;;;;;;2514845;55;21695;-68
2023/10/24 12:52:29;;;;;;;0.98;0.40;;;18.40;74.70;;;;;;2280840;56;20981;-69
2023/10/24 12:54:55;;;;;;;1.27;0.40;;;18.50;74.80;;;;;;2514079;54;20927;-67
2023/10/24 12:57:23;;;;;;;0.65;0.37;;;18.40;74.70;;;;;;2280714;56;21663;-66
2023/10/24 12:59:49;;;;;;;2.28;0.50;;;18.50;74.80;;;;;;2281170;55;20954;-65
2023/10/24 13:02:15;;;;;;;0.57;0.30;;;18.50;74.60;;;;;;2281207;56;20950;-65
2023/10/24 13:04:44;;;;;;;0.80;0.40;;;18.50;74.60;;;;;;2281370;56;20977;-66
2023/10/24 13:07:14;;;;;;;1.60;0.40;;;18.50;74.70;;;;;;2281668;56;20946;-66